createdAt,value
2023-03-03T00:01:37.525Z,60840.84
2023-03-03T00:04:05.997Z,60844.06
2023-03-03T00:06:34.536Z,60834.69
2023-03-03T00:09:02.936Z,60836.69
2023-03-03T00:11:31.352Z,60839.38
2023-03-03T00:13:59.912Z,60827.91
2023-03-03T00:16:33.761Z,60833.09
2023-03-03T00:19:02.429Z,60823.38
2023-03-03T00:21:33.413Z,60836.03
2023-03-03T00:24:24.763Z,60837.78
2023-03-03T00:26:56.078Z,60823.78
2023-03-03T00:29:35.868Z,60832.44
2023-03-03T00:32:27.085Z,60830.31
2023-03-03T00:34:58.336Z,60814.31
2023-03-03T00:37:35.763Z,60805.53
2023-03-03T00:40:25.072Z,60800.84
2023-03-03T00:42:55.815Z,60797.66
2023-03-03T00:45:33.112Z,60796.47
2023-03-03T00:48:27.665Z,60793.38
2023-03-03T00:51:01.583Z,60791.91
2023-03-03T00:53:31.896Z,60783.91
2023-03-03T00:56:00.266Z,60778.03
2023-03-03T00:58:29.703Z,60783.38
2023-03-03T01:00:58.895Z,60786.03
2023-03-03T01:03:38.114Z,60785.13
2023-03-03T01:06:07.064Z,60778.03
2023-03-03T01:08:35.515Z,60782.31
2023-03-03T01:11:10.080Z,60771.13
2023-03-03T01:13:41.922Z,60770.59
2023-03-03T01:16:11.941Z,60775.94
2023-03-03T01:18:42.696Z,60775.25
2023-03-03T01:21:11.760Z,60769.63
2023-03-03T01:23:41.467Z,60773.78
2023-03-03T01:26:10.018Z,60773.78
2023-03-03T01:28:38.380Z,60763.53
2023-03-03T01:31:07.737Z,60769.28
2023-03-03T01:33:37.759Z,60762.47
2023-03-03T01:36:09.372Z,60768.19
2023-03-03T01:38:38.207Z,60766.59
2023-03-03T01:41:07.327Z,60772.72
2023-03-03T01:43:35.785Z,60770.59
2023-03-03T01:46:45.840Z,60760.75
2023-03-03T01:49:17.624Z,60752.34
2023-03-03T01:51:52.362Z,60752.47
2023-03-03T01:54:27.784Z,60753.94
2023-03-03T01:57:01.157Z,60747.13
2023-03-03T01:59:33.173Z,60743.94
2023-03-03T02:02:01.628Z,60742.88
2023-03-03T02:04:30.579Z,60739.00
2023-03-03T02:07:06.997Z,60739.25
2023-03-03T02:09:44.916Z,60737.00
2023-03-03T02:12:17.684Z,60743.00
2023-03-03T02:14:46.901Z,60748.72
2023-03-03T02:17:15.450Z,60748.19
2023-03-03T02:19:54.164Z,60736.06
2023-03-03T02:22:36.237Z,60732.22
2023-03-03T02:25:09.805Z,60730.09
2023-03-03T02:27:40.053Z,60723.69
2023-03-03T02:30:15.745Z,60717.69
2023-03-03T02:32:44.374Z,60716.78
2023-03-03T02:35:39.215Z,60769.94
2023-03-03T02:38:20.908Z,60780.19
2023-03-03T02:41:01.913Z,60816.84
2023-03-03T02:43:38.720Z,60813.09
2023-03-03T02:46:07.199Z,60804.69
2023-03-03T02:48:35.787Z,60810.44
2023-03-03T02:51:04.226Z,60798.31
2023-03-03T02:53:32.632Z,60800.84
2023-03-03T02:56:01.040Z,60801.50
2023-03-03T02:58:29.461Z,60800.19
2023-03-03T03:00:59.282Z,60753.53
2023-03-03T03:03:28.511Z,60740.09
2023-03-03T03:05:56.892Z,60723.56
2023-03-03T03:08:27.000Z,60696.53
2023-03-03T03:10:56.954Z,60695.88
2023-03-03T03:13:27.004Z,60684.25
2023-03-03T03:15:55.605Z,60690.53
2023-03-03T03:18:25.384Z,60685.22
2023-03-03T03:20:56.439Z,60675.63
2023-03-03T03:23:24.880Z,60664.03
2023-03-03T03:25:53.277Z,60672.56
2023-03-03T03:28:28.536Z,60667.63
2023-03-03T03:30:57.313Z,60668.81
2023-03-03T03:33:28.269Z,60664.03
2023-03-03T03:35:58.308Z,60658.19
2023-03-03T03:38:29.747Z,60661.91
2023-03-03T03:40:58.426Z,60666.97
2023-03-03T03:43:28.675Z,60662.44
2023-03-03T03:45:57.391Z,60658.72
2023-03-03T03:48:28.515Z,60651.25
2023-03-03T03:50:57.599Z,60651.91
2023-03-03T03:53:28.341Z,60638.88
2023-03-03T03:55:56.845Z,60641.69
2023-03-03T03:58:25.429Z,60652.06
2023-03-03T04:01:04.710Z,60635.94
2023-03-03T04:03:35.838Z,60642.19
2023-03-03T04:06:07.601Z,60635.28
2023-03-03T04:08:36.345Z,60619.72
2023-03-03T04:11:05.544Z,60627.59
2023-03-03T04:13:35.344Z,60626.25
2023-03-03T04:16:07.494Z,60618.25
2023-03-03T04:18:38.271Z,60615.47
2023-03-03T04:21:07.198Z,60615.06
2023-03-03T04:23:35.711Z,60606.53
2023-03-03T04:26:05.010Z,60592.44
2023-03-03T04:28:33.764Z,60588.97
2023-03-03T04:31:03.235Z,60591.25
2023-03-03T04:33:33.088Z,60586.31
2023-03-03T04:36:04.671Z,60582.47
2023-03-03T04:38:33.093Z,60584.59
2023-03-03T04:41:01.742Z,60589.50
2023-03-03T04:43:34.871Z,60582.34
2023-03-03T04:46:03.930Z,60581.94
2023-03-03T04:48:32.996Z,60570.38
2023-03-03T04:51:01.399Z,60573.81
2023-03-03T04:53:31.459Z,60567.19
2023-03-03T04:56:00.045Z,60564.53
2023-03-03T04:58:28.465Z,60539.50
2023-03-03T05:00:58.760Z,60536.44
2023-03-03T05:03:29.750Z,60537.41
2023-03-03T05:05:58.158Z,60544.69
2023-03-03T05:08:26.617Z,60545.66
2023-03-03T05:10:56.726Z,60535.78
2023-03-03T05:13:25.108Z,60533.53
2023-03-03T05:15:55.490Z,60527.69
2023-03-03T05:18:25.273Z,60509.75
2023-03-03T05:20:55.415Z,60506.41
2023-03-03T05:23:24.540Z,60503.34
2023-03-03T05:25:52.965Z,60516.13
2023-03-03T05:28:22.824Z,60516.25
2023-03-03T05:30:51.290Z,60492.72
2023-03-03T05:33:19.892Z,60490.88
2023-03-03T05:35:48.636Z,60505.50
2023-03-03T05:38:17.256Z,60503.22
2023-03-03T05:40:45.870Z,60493.13
2023-03-03T05:43:14.448Z,60488.75
2023-03-03T05:45:44.353Z,60496.31
2023-03-03T05:48:12.788Z,60495.94
2023-03-03T05:50:41.171Z,60496.59
2023-03-03T05:53:09.649Z,60499.13
2023-03-03T05:55:38.122Z,60502.69
2023-03-03T05:58:06.550Z,60493.41
2023-03-03T06:00:34.994Z,60506.56
2023-03-03T06:03:05.008Z,60489.53
2023-03-03T06:05:33.496Z,60504.31
2023-03-03T06:08:01.968Z,60495.94
2023-03-03T06:10:30.338Z,60488.22
2023-03-03T06:13:01.421Z,60498.16
2023-03-03T06:15:30.032Z,60518.63
2023-03-03T06:17:58.724Z,60511.47
2023-03-03T06:20:28.678Z,60516.13
2023-03-03T06:22:57.160Z,60510.25
2023-03-03T06:25:25.740Z,60517.19
2023-03-03T06:27:54.258Z,60518.25
2023-03-03T06:30:22.923Z,60516.13
2023-03-03T06:32:51.330Z,60537.78
2023-03-03T06:35:19.883Z,60528.06
2023-03-03T06:37:50.930Z,60530.34
2023-03-03T06:40:19.731Z,60528.88
2023-03-03T06:42:48.314Z,60524.09
2023-03-03T06:45:16.904Z,60528.47
2023-03-03T06:47:45.423Z,60536.06
2023-03-03T06:50:14.671Z,60524.22
2023-03-03T06:52:43.109Z,60532.06
2023-03-03T06:55:24.167Z,60545.91
2023-03-03T06:57:55.870Z,60548.03
2023-03-03T07:00:30.853Z,60559.72
2023-03-03T07:03:03.310Z,60568.25
2023-03-03T07:05:33.181Z,60556.53
2023-03-03T07:08:01.725Z,60564.00
2023-03-03T07:10:32.722Z,60585.78
2023-03-03T07:13:18.956Z,60604.81
2023-03-03T07:15:49.207Z,60605.88
2023-03-03T07:18:39.313Z,60586.84
2023-03-03T07:21:21.182Z,60585.53
2023-03-03T07:23:52.784Z,60605.50
2023-03-03T07:26:30.740Z,60576.75
2023-03-03T07:29:02.563Z,60586.31
2023-03-03T07:31:38.573Z,60583.13
2023-03-03T07:34:22.040Z,60586.31
2023-03-03T07:36:51.962Z,60600.16
2023-03-03T07:39:35.153Z,60608.03
2023-03-03T07:42:29.518Z,60605.22
2023-03-03T07:45:28.144Z,60627.81
2023-03-03T07:48:10.926Z,60628.63
2023-03-03T07:50:39.448Z,60621.44
2023-03-03T07:53:23.389Z,60614.41
2023-03-03T07:55:51.788Z,60612.94
2023-03-03T07:58:30.541Z,60602.81
2023-03-03T08:01:34.713Z,60611.22
2023-03-03T08:04:04.510Z,60606.41
2023-03-03T08:06:43.698Z,60611.06
2023-03-03T08:09:48.190Z,60637.94
2023-03-03T08:12:41.927Z,60641.16
2023-03-03T08:15:23.758Z,60641.28
2023-03-03T08:17:55.037Z,60641.69
2023-03-03T08:20:47.681Z,60650.19
2023-03-03T08:23:18.130Z,60645.16
2023-03-03T08:25:48.425Z,60667.22
2023-03-03T08:28:17.497Z,60651.25
2023-03-03T08:30:48.026Z,60648.06
2023-03-03T08:33:16.959Z,60653.66
2023-03-03T08:35:45.612Z,60670.03
2023-03-03T08:38:17.087Z,60677.75
2023-03-03T08:40:45.901Z,60677.88
2023-03-03T08:43:17.365Z,60684.81
2023-03-03T08:45:48.951Z,60672.81
2023-03-03T08:48:17.972Z,60693.88
2023-03-03T08:50:47.362Z,60681.19
2023-03-03T08:53:16.973Z,60694.91
2023-03-03T08:55:45.798Z,60714.09
2023-03-03T08:58:14.666Z,60701.31
2023-03-03T09:00:43.764Z,60691.72
2023-03-03T09:03:13.758Z,60719.41
2023-03-03T09:05:42.836Z,60725.81
2023-03-03T09:08:11.584Z,60740.63
2023-03-03T09:10:40.387Z,60727.94
2023-03-03T09:13:15.720Z,60756.72
2023-03-03T09:15:44.252Z,60719.41
2023-03-03T09:18:18.065Z,60758.22
2023-03-03T09:20:48.192Z,60757.25
2023-03-03T09:23:37.637Z,60750.72
2023-03-03T09:26:30.731Z,60781.25
2023-03-03T09:29:19.405Z,60749.28
2023-03-03T09:31:51.709Z,60757.53
2023-03-03T09:34:27.915Z,60757.78
2023-03-03T09:37:00.153Z,60736.59
2023-03-03T09:39:32.031Z,60758.22
2023-03-03T09:42:52.115Z,60785.13
2023-03-03T09:45:36.839Z,60844.56
2023-03-03T09:48:41.394Z,60859.25
2023-03-03T09:51:32.750Z,60939.03
2023-03-03T09:54:31.047Z,60937.69
2023-03-03T09:57:11.645Z,60912.22
2023-03-03T09:59:55.654Z,60972.78
2023-03-03T10:02:40.001Z,61026.75
2023-03-03T10:05:21.939Z,61087.06
2023-03-03T10:08:04.957Z,61105.25
2023-03-03T10:10:56.760Z,61144.84
2023-03-03T10:13:43.513Z,61200.91
2023-03-03T10:16:32.521Z,61199.41
2023-03-03T10:19:05.853Z,61144.41
2023-03-03T10:21:41.166Z,61155.13
2023-03-03T10:24:28.941Z,61149.22
2023-03-03T10:27:26.083Z,61148.69
2023-03-03T10:30:05.684Z,61211.84
2023-03-03T10:32:48.710Z,61149.63
2023-03-03T10:36:07.304Z,61168.34
2023-03-03T10:38:56.499Z,61140.13
2023-03-03T10:41:45.335Z,61155.13
2023-03-03T10:44:37.465Z,61163.56
2023-03-03T10:47:35.771Z,61200.72
2023-03-03T10:50:17.616Z,61174.91
2023-03-03T10:53:04.533Z,61197.91
2023-03-03T10:56:10.848Z,61184.41
2023-03-03T10:59:07.056Z,61256.56
2023-03-03T11:01:50.871Z,61277.16
2023-03-03T11:04:56.121Z,61249.31
2023-03-03T11:07:33.363Z,61235.94
2023-03-03T11:10:19.444Z,61224.03
2023-03-03T11:13:09.376Z,61232.72
2023-03-03T11:16:07.086Z,61236.88
2023-03-03T11:19:03.662Z,61224.03
2023-03-03T11:21:38.905Z,61242.66
2023-03-03T11:24:36.206Z,61225.75
2023-03-03T11:27:23.909Z,61262.16
2023-03-03T11:30:23.828Z,61307.84
2023-03-03T11:33:05.247Z,61237.31
2023-03-03T11:35:44.111Z,61244.09
2023-03-03T11:38:37.786Z,61254.66
2023-03-03T11:41:18.345Z,61199.66
2023-03-03T11:43:50.777Z,61173.97
2023-03-03T11:46:26.227Z,61207.00
2023-03-03T11:49:03.389Z,61283.34
2023-03-03T11:51:48.426Z,61250.38
2023-03-03T11:54:24.157Z,61253.47
2023-03-03T11:56:57.301Z,61264.06
2023-03-03T11:59:43.658Z,61256.56
2023-03-03T12:02:44.003Z,61256.81
2023-03-03T12:05:29.295Z,61263.00
2023-03-03T12:08:09.786Z,61252.41
2023-03-03T12:10:44.781Z,61279.84
2023-03-03T12:13:22.999Z,61255.50
2023-03-03T12:15:58.831Z,61269.44
2023-03-03T12:18:55.369Z,61272.25
2023-03-03T12:21:45.081Z,61257.78
2023-03-03T12:24:33.138Z,61290.00
2023-03-03T12:27:16.497Z,61250.16
2023-03-03T12:29:57.875Z,61187.22
2023-03-03T12:32:48.018Z,61167.94
2023-03-03T12:35:28.046Z,61216.53
2023-03-03T12:38:07.161Z,61234.09
2023-03-03T12:40:38.270Z,61267.81
2023-03-03T12:43:29.152Z,61246.94
2023-03-03T12:46:07.389Z,61256.16
2023-03-03T12:48:43.040Z,61222.97
2023-03-03T12:51:28.285Z,61220.81
2023-03-03T12:54:39.548Z,61239.44
2023-03-03T12:57:22.293Z,61233.91
2023-03-03T13:00:13.417Z,61287.34
2023-03-03T13:02:50.469Z,61282.53
2023-03-03T13:05:26.027Z,61265.13
2023-03-03T13:08:19.387Z,61254.00
2023-03-03T13:10:58.401Z,61215.06
2023-03-03T13:13:32.874Z,61227.13
2023-03-03T13:16:06.827Z,61205.41
2023-03-03T13:18:51.024Z,61242.88
2023-03-03T13:21:26.898Z,61259.13
2023-03-03T13:24:05.095Z,61243.44
2023-03-03T13:26:42.542Z,61226.81
2023-03-03T13:29:22.191Z,61201.13
2023-03-03T13:31:56.530Z,61222.97
2023-03-03T13:34:42.920Z,61232.31
2023-03-03T13:37:19.777Z,61256.00
2023-03-03T13:39:58.404Z,61253.47
2023-03-03T13:42:35.912Z,61274.91
2023-03-03T13:45:14.456Z,61252.66
2023-03-03T13:47:54.967Z,61239.00
2023-03-03T13:50:33.293Z,61233.78
2023-03-03T13:53:26.968Z,61239.00
2023-03-03T13:56:05.697Z,61225.09
2023-03-03T13:58:43.893Z,61209.69
2023-03-03T14:01:22.929Z,61251.44
2023-03-03T14:04:15.512Z,61218.78
2023-03-03T14:06:55.874Z,61207.56
2023-03-03T14:09:54.193Z,61174.38
2023-03-03T14:12:31.021Z,61199.81
2023-03-03T14:15:11.169Z,61201.69
2023-03-03T14:17:55.943Z,61211.19
2023-03-03T14:20:29.479Z,61191.81
2023-03-03T14:23:01.190Z,61180.81
2023-03-03T14:25:54.403Z,61160.22
2023-03-03T14:28:24.995Z,61161.53
2023-03-03T14:30:57.691Z,61196.31
2023-03-03T14:33:32.381Z,61193.41
2023-03-03T14:36:16.243Z,61156.72
2023-03-03T14:38:51.777Z,61160.34
2023-03-03T14:41:38.065Z,61172.53
2023-03-03T14:44:29.482Z,61185.91
2023-03-03T14:47:24.831Z,61187.63
2023-03-03T14:49:54.701Z,61199.28
2023-03-03T14:52:28.767Z,61208.63
2023-03-03T14:55:00.443Z,61216.13
2023-03-03T14:57:46.576Z,61214.81
2023-03-03T15:00:36.411Z,61213.34
2023-03-03T15:03:23.652Z,61222.97
2023-03-03T15:05:53.788Z,61205.72
2023-03-03T15:08:33.272Z,61170.50
2023-03-03T15:11:19.502Z,61167.41
2023-03-03T15:13:48.115Z,61157.00
2023-03-03T15:16:20.435Z,61157.25
2023-03-03T15:19:23.434Z,61149.88
2023-03-03T15:22:02.885Z,61164.09
2023-03-03T15:24:41.546Z,61174.78
2023-03-03T15:27:15.618Z,61169.44
2023-03-03T15:29:56.937Z,61164.22
2023-03-03T15:32:31.281Z,61157.00
2023-03-03T15:35:13.466Z,61160.69
2023-03-03T15:37:51.470Z,61162.59
2023-03-03T15:40:27.562Z,61173.72
2023-03-03T15:43:12.458Z,61171.16
2023-03-03T15:45:52.617Z,61168.34
2023-03-03T15:48:42.564Z,61176.25
2023-03-03T15:51:28.180Z,61160.47
2023-03-03T15:54:23.973Z,61150.81
2023-03-03T15:56:58.416Z,61147.91
2023-03-03T16:00:02.324Z,61153.25
2023-03-03T16:02:50.994Z,61154.47
2023-03-03T16:05:25.675Z,61159.91
2023-03-03T16:08:04.765Z,61146.03
2023-03-03T16:10:43.169Z,61152.97
2023-03-03T16:13:33.715Z,61166.63
2023-03-03T16:16:17.444Z,61151.78
2023-03-03T16:19:03.333Z,61152.44
2023-03-03T16:22:03.210Z,61144.41
2023-03-03T16:24:44.134Z,61131.16
2023-03-03T16:27:21.617Z,61140.78
2023-03-03T16:30:28.525Z,61143.34
2023-03-03T16:33:12.937Z,61146.56
2023-03-03T16:35:47.545Z,61132.50
2023-03-03T16:38:23.715Z,61120.88
2023-03-03T16:40:57.782Z,61122.34
2023-03-03T16:43:34.313Z,61110.59
2023-03-03T16:46:13.083Z,61116.06
2023-03-03T16:48:53.106Z,61113.78
2023-03-03T16:51:38.795Z,61111.66
2023-03-03T16:54:11.208Z,61095.22
2023-03-03T16:56:45.720Z,61098.00
2023-03-03T16:59:40.465Z,61092.66
2023-03-03T17:02:33.823Z,61086.00
2023-03-03T17:05:09.785Z,61086.53
2023-03-03T17:07:46.364Z,61083.56
2023-03-03T17:10:26.967Z,61075.94
2023-03-03T17:13:47.931Z,61113.78
2023-03-03T17:16:23.658Z,61131.16
2023-03-03T17:19:11.008Z,61139.06
2023-03-03T17:21:58.543Z,61141.19
2023-03-03T17:24:39.692Z,61140.13
2023-03-03T17:27:20.347Z,61137.34
2023-03-03T17:29:57.879Z,61118.75
2023-03-03T17:32:50.260Z,61117.00
2023-03-03T17:35:53.775Z,61109.09
2023-03-03T17:38:36.316Z,61113.16
2023-03-03T17:41:11.148Z,61099.34
2023-03-03T17:43:52.891Z,61080.66
2023-03-03T17:46:37.281Z,61057.53
2023-03-03T17:49:42.626Z,61030.91
2023-03-03T17:52:59.100Z,61015.00
2023-03-03T17:56:02.948Z,61005.91
2023-03-03T17:58:56.114Z,61005.25
2023-03-03T18:01:46.481Z,60991.50
2023-03-03T18:04:42.453Z,60989.38
2023-03-03T18:07:43.288Z,60977.22
2023-03-03T18:10:56.959Z,60976.66
2023-03-03T18:13:51.973Z,60970.13
2023-03-03T18:16:35.779Z,60968.94
2023-03-03T18:19:46.552Z,60960.41
2023-03-03T18:22:20.621Z,60950.25
2023-03-03T18:25:03.469Z,60946.50
2023-03-03T18:27:37.771Z,60940.75
2023-03-03T18:30:24.926Z,60940.63
2023-03-03T18:33:12.755Z,60937.16
2023-03-03T18:35:43.991Z,60938.63
2023-03-03T18:38:34.987Z,60930.75
2023-03-03T18:41:06.554Z,60929.97
2023-03-03T18:44:01.124Z,60927.41
2023-03-03T18:46:56.421Z,60924.63
2023-03-03T18:49:59.365Z,60910.34
2023-03-03T18:52:31.164Z,60916.06
2023-03-03T18:55:26.038Z,60908.63
2023-03-03T18:58:44.290Z,60879.91
2023-03-03T19:01:44.910Z,60890.06
2023-03-03T19:04:25.223Z,60893.00
2023-03-03T19:07:18.892Z,60875.75
2023-03-03T19:09:58.120Z,60865.91
2023-03-03T19:12:49.023Z,60866.56
2023-03-03T19:15:59.802Z,60855.50
2023-03-03T19:18:29.910Z,60860.16
2023-03-03T19:21:02.512Z,60865.38
2023-03-03T19:23:51.171Z,60852.72
2023-03-03T19:26:50.296Z,60845.22
2023-03-03T19:29:53.611Z,60840.72
2023-03-03T19:33:10.615Z,60853.25
2023-03-03T19:35:51.246Z,60852.47
2023-03-03T19:38:34.934Z,60841.50
2023-03-03T19:41:19.548Z,60826.69
2023-03-03T19:43:59.790Z,60817.09
2023-03-03T19:46:55.056Z,60826.03
2023-03-03T19:49:42.106Z,60817.91
2023-03-03T19:52:21.376Z,60815.38
2023-03-03T19:55:03.999Z,60814.06
2023-03-03T19:57:48.939Z,60811.91
2023-03-03T20:00:25.971Z,60810.03
2023-03-03T20:03:27.226Z,60793.38
2023-03-03T20:06:06.918Z,60792.72
2023-03-03T20:08:42.967Z,60785.91
2023-03-03T20:11:25.103Z,60790.59
2023-03-03T20:14:02.069Z,60787.66
2023-03-03T20:16:40.816Z,60782.31
2023-03-03T20:19:25.215Z,60768.44
2023-03-03T20:22:08.205Z,60767.78
2023-03-03T20:25:05.254Z,60754.59
2023-03-03T20:27:45.921Z,60757.78
2023-03-03T20:30:31.027Z,60757.78
2023-03-03T20:33:17.620Z,60740.31
2023-03-03T20:35:59.769Z,60733.94
2023-03-03T20:38:41.183Z,60739.66
2023-03-03T20:41:19.023Z,60739.41
2023-03-03T20:44:03.637Z,60744.47
2023-03-03T20:46:44.668Z,60740.19
2023-03-03T20:49:38.210Z,60719.97
2023-03-03T20:52:13.929Z,60718.34
2023-03-03T20:54:53.836Z,60713.03
2023-03-03T20:57:33.977Z,60706.13
2023-03-03T21:00:09.373Z,60721.56
2023-03-03T21:02:43.635Z,60718.34
2023-03-03T21:05:16.307Z,60719.97
2023-03-03T21:07:56.788Z,60718.34
2023-03-03T21:10:30.059Z,60708.25
2023-03-03T21:13:00.516Z,60712.50
2023-03-03T21:15:32.212Z,60709.84
2023-03-03T21:18:01.310Z,60709.44
2023-03-03T21:20:32.807Z,60712.63
2023-03-03T21:23:03.245Z,60714.63
2023-03-03T21:25:49.298Z,60707.03
2023-03-03T21:28:21.279Z,60710.91
2023-03-03T21:31:18.034Z,60707.03
2023-03-03T21:33:56.051Z,60696.41
2023-03-03T21:36:26.034Z,60700.25
2023-03-03T21:38:56.576Z,60691.84
2023-03-03T21:41:26.620Z,60688.94
2023-03-03T21:43:55.825Z,60686.69
2023-03-03T21:46:26.143Z,60680.00
2023-03-03T21:48:54.585Z,60683.19
2023-03-03T21:51:24.443Z,60692.78
2023-03-03T21:53:52.962Z,60691.19
2023-03-03T21:56:21.351Z,60686.78
2023-03-03T21:58:51.194Z,60682.16
2023-03-03T22:01:19.663Z,60696.41
2023-03-03T22:03:48.714Z,60688.00
2023-03-03T22:06:17.967Z,60678.41
2023-03-03T22:08:46.371Z,60681.63
2023-03-03T22:11:15.633Z,60672.81
2023-03-03T22:13:44.340Z,60668.28
2023-03-03T22:16:14.190Z,60666.16
2023-03-03T22:18:42.753Z,60667.91
2023-03-03T22:21:11.074Z,60667.22
2023-03-03T22:23:39.497Z,60665.63
2023-03-03T22:26:07.987Z,60660.84
2023-03-03T22:28:36.499Z,60664.56
2023-03-03T22:31:05.224Z,60666.72
2023-03-03T22:33:35.034Z,60664.03
2023-03-03T22:36:03.411Z,60659.78
2023-03-03T22:38:31.836Z,60659.25
2023-03-03T22:41:00.383Z,60640.84
2023-03-03T22:43:29.810Z,60653.38
2023-03-03T22:45:58.946Z,60646.47
2023-03-03T22:48:29.163Z,60645.41
2023-03-03T22:50:59.104Z,60633.16
2023-03-03T22:53:27.933Z,60642.19
2023-03-03T22:55:56.552Z,60633.41
2023-03-03T22:58:26.218Z,60629.16
2023-03-03T23:00:55.436Z,60620.91
2023-03-03T23:03:24.541Z,60612.94
2023-03-03T23:05:53.174Z,60616.13
2023-03-03T23:08:23.065Z,60617.59
2023-03-03T23:10:51.461Z,60599.91
2023-03-03T23:13:19.852Z,60598.56
2023-03-03T23:15:48.281Z,60600.69
2023-03-03T23:18:16.801Z,60608.03
2023-03-03T23:20:46.098Z,60598.44
2023-03-03T23:23:14.807Z,60588.59
2023-03-03T23:25:44.663Z,60595.91
2023-03-03T23:28:15.576Z,60609.06
2023-03-03T23:30:45.036Z,60595.91
2023-03-03T23:33:13.674Z,60595.38
2023-03-03T23:35:42.576Z,60592.19
2023-03-03T23:38:15.399Z,60594.19
2023-03-03T23:40:46.646Z,60590.59
2023-03-03T23:43:15.364Z,60581.69
2023-03-03T23:45:43.700Z,60584.72
2023-03-03T23:48:12.572Z,60588.84
2023-03-03T23:50:41.053Z,60586.59
2023-03-03T23:53:09.666Z,60581.00
2023-03-03T23:55:38.063Z,60579.94
2023-03-03T23:58:08.080Z,60583.13
